Terminal Aerodrome Forecast
Issued by NWS

Home | Current Version | Previous Version | Text Only | Print | Product List | Glossary On
Versions: 1 2 3 4 5 6 7 8 9 10 11 12 13 14 15 16 17 18 19 20 21 22 23 24 25 26 27 28 29 30 31 32 33 34 35 36 37 38 39
000
FTUS41 KGYX 241120
TAFMHT
TAF
KMHT 241120Z 2412/2512 03017G25KT 1 1/2SM -SNPL BR OVC010
      WS015/07045KT
      TEMPO 2412/2414 5SM -FZRA BR
     FM241400 04017G25KT 3SM RA OVC010
     FM250000 35015G22KT 1SM -DZ BR OVC007=

USA.gov is the U.S. government's official web portal to all federal, state and local government web resources and services.